This is the latest recevied weather packets stored in our database for station/object KD4PMP. If no packets are shown the sender has not sent any weather packets the latest 1 day(s).
| Time | Temp. | Humidity | Pressure | Rain* | Wind** | Luminosity | Snow |
|---|---|---|---|---|---|---|---|
| 1778092219 | 12.22° C | 93% | 1013.5 hPa | 0 mm | - | - | - |
| 1778091619 | 12.22° C | 93% | 1013.4 hPa | 0 mm | - | - | - |
| 1778088617 | 12.22° C | 94% | 1012.7 hPa | 0 mm | - | - | - |
| 1778086816 | 12.22° C | 94% | 1012.6 hPa | 0 mm | - | - | - |
| 1778083815 | 12.22° C | 95% | 1012.6 hPa | 0 mm | - | - | - |
| 1778082614 | 11.67° C | 94% | 1012.7 hPa | 0 mm | - | - | - |
| 1778082014 | 12.22° C | 95% | 1012.5 hPa | 0 mm | - | - | - |
| 1778080814 | 11.67° C | 95% | 1012.4 hPa | 0 mm | - | - | - |
| 1778079613 | 11.67° C | 95% | 1012.4 hPa | 0 mm | - | - | - |
| 1778076011 | 11.67° C | 95% | 1011 hPa | 0 mm | - | - | - |
| 1778071809 | 11.67° C | 95% | 1009.8 hPa | 0 mm | - | - | - |
| 1778069408 | 11.67° C | 95% | 1010.7 hPa | 0 mm | - | - | - |
| 1778062805 | 12.78° C | 93% | 1009 hPa | 0 mm | - | - | - |
| 1778055601 | 20.56° C | 85% | 1007.1 hPa | 0 mm | - | - | - |
| 1778053800 | 22.22° C | 78% | 1006 hPa | 0 mm | - | - | - |
| 1778053200 | 22.22° C | 76% | 1006.1 hPa | 0 mm | - | - | - |
| 1778051999 | 22.22° C | 75% | 1005.6 hPa | 0 mm | - | - | - |
| 1778051399 | 22.22° C | 75% | 1005.5 hPa | 0 mm | - | - | - |
| 1778050799 | 22.22° C | 75% | 1005.9 hPa | 0 mm | - | - | - |
| 1778049598 | 22.22° C | 74% | 1005.6 hPa | 0 mm | - | - | - |
| 1778048998 | 22.22° C | 74% | 1005.7 hPa | 0 mm | - | - | - |
| 1778047797 | 22.22° C | 74% | 1006.1 hPa | 0 mm | - | - | - |
| 1778047197 | 22.22° C | 73% | 1006.1 hPa | 0 mm | - | - | - |
| 1778046597 | 22.22° C | 73% | 1006 hPa | 0 mm | - | - | - |
| 1778045426 | 22.22° C | 73% | 1006.7 hPa | 0 mm | - | - | - |
* Rain latest hour (hover to see other rain measurements)
** Current wind speed in m/s (hover to see current wind gust speed)